Aeroporto :
LOGIN :

Iscrizione | Disclaimer

   EN    FR    IT 

 










Sommario :    VFR   VFR Marginale   IFR   IFR Intensivo   IFR Molto Intensivo
Visibilità : 
Base nubi : 
>= 8 km
>= 3000ft
5 / 8 km
1000 / 3000 ft
1500m / 5 km
500 / 1000 ft
800 / 1500m
200 / 500 ft
< 800m
< 200 ft
Simboli :   Temporali  Nebbia  Neve Forte  Precipitazioni Forti  Vento > 20 kt
SIGMETs :   Varie  Temporali  Ghiacco  Turbolenza  Onda orograficha  Ceneri Vulcaniche







- Altitudine del aeroporto : 464 ft
- Codice IATA : EVX
- Carte del aeroporto


LFOE - Evreux

ULTIMO METAR :
  • 232130Z AUTO 22003KT 9999 -RA ///TCU 14/12 Q1017 BECMG 32010KT NSC

METARs OBSOLETI :
  • 232100Z AUTO 27006KT 9999 -RA ///TCU 14/11 Q1017 TEMPO VRB15G30KT 2000 SHRA SCT040CB
  • 232030Z AUTO 28008KT 9999 ///TCU 14/11 Q1017 TEMPO 32015G30KT 2000 TSRA SCT050CB
  • 232000Z AUTO 29009KT 260V330 9999 ///TCU 15/11 Q1017 TEMPO 32015G30KT 2000 TSRA SCT050CB
  • 231930Z AUTO 29011KT 9999 ///CB 15/12 Q1017 TEMPO 32015G30KT 2000 TSRA
  • 231900Z AUTO 28012KT 250V310 9999 ///TCU 16/12 Q1017 TEMPO 32015G30KT 2000 TSRA SCT050CB

TAF TAF LFOE
Valido dal 23 a 21 ore il 24 a 21 ore UTC


232000Z 2321/2421 32010KT CAVOK
TEMPO 2321/2322 VRB15G30KT 2000 SHRA SCT040CB
PROB30
TEMPO 2411/2417 32015G25KT 4000 -SHRA SCT040TCU
Nessun NOTAM noto per questo aeroporto.



MetMap, La meteo Aeronautica in un colpo d'occhio ! - Copyright ORBIFLY Dicembre 2007 - Disclaimer

ORBIFLY MET'MAP TEAM :

Programmazione e sviluppo : Alexandra Zaïnal
Concezione e sviluppo : Baudouin d'Aumeries
Co-Programmazione e sviluppo : Marc-Olivier Méhu
Supporto tecnico e logistico : Manuel Goepfert
Aiuto per la traduzione : Arnaldo La Scala

Contatto : metmap@orbifly.com




FONTI E CREDITI :

   NOAA